Franca, Brazil
Current Conditions -  °F | °C
As of 3:00 PM on Friday 19 Dec 2014 (Local Time) from SBRP Reporting Station
Scattered Clouds Scattered Clouds  
Wind Chill: 91°   Ceiling: Unl
Heat Index: 92°   Visibility: 6mi
Dew Point: 63°   Wind: 10mph
Humidity: 38%   Direction: 340°NNW
Pressure: 29.8"   Gusts: NA
Location:  20.53°S, 47.39°W
Report Text: SBRP 191700Z 34009KT 9999 SCT035 33/17 Q1009
Loading
Personal Weather Stations






























Interactive Weather Map New forecast layout! Learn more

10-Day Weather Forecast

Advertisements
Track Severe Weather on mobile